Time;durP1;ratioP1;P1;durP2;ratioP2;P2;SDS_P1;SDS_P2;PMS_P1;PMS_P2;Temp;Humidity;BMP_temperature;BMP_pressure;BME280_temperature;BME280_humidity;BME280_pressure;Samples;Min_cycle;Max_cycle;Signal;HPM_P1;HPM_P2
2021/11/11 00:02:11;;;;;;;60.40;30.13;;;3.90;99.90;;;;;;4440582;32;20181;-66
2021/11/11 00:04:39;;;;;;;58.03;29.67;;;3.80;99.90;;;;;;4439070;32;20436;-67
2021/11/11 00:07:06;;;;;;;59.83;30.30;;;3.80;99.90;;;;;;4439998;32;20447;-66
2021/11/11 00:09:32;;;;;;;59.77;29.43;;;3.80;99.90;;;;;;4440136;32;20169;-67
2021/11/11 00:12:00;;;;;;;59.73;31.27;;;3.80;99.90;;;;;;4438277;32;20555;-66
2021/11/11 00:14:27;;;;;;;59.53;29.67;;;3.80;99.90;;;;;;4438508;32;20562;-66
2021/11/11 00:16:54;;;;;;;59.57;29.70;;;3.80;99.90;;;;;;4438449;32;20182;-67
2021/11/11 00:19:21;;;;;;;60.07;29.70;;;3.70;99.90;;;;;;4440009;32;20203;-66
2021/11/11 00:21:48;;;;;;;56.30;28.70;;;3.70;99.90;;;;;;4439676;32;20429;-66
2021/11/11 00:24:15;;;;;;;57.13;29.43;;;3.60;99.90;;;;;;4439053;32;20177;-66
2021/11/11 00:26:43;;;;;;;54.60;29.00;;;3.60;99.90;;;;;;4440128;32;20175;-66
2021/11/11 00:29:10;;;;;;;60.27;29.37;;;3.60;99.90;;;;;;4437939;32;20203;-66
2021/11/11 00:31:37;;;;;;;59.30;30.07;;;3.60;99.90;;;;;;4426982;32;20441;-67
2021/11/11 00:34:04;;;;;;;58.60;29.53;;;3.60;99.90;;;;;;4438856;32;20195;-66
2021/11/11 00:36:31;;;;;;;56.70;29.23;;;3.50;99.90;;;;;;4448292;32;20174;-66
2021/11/11 00:38:58;;;;;;;57.97;30.40;;;3.50;99.90;;;;;;4439669;32;20197;-67
2021/11/11 00:41:26;;;;;;;57.50;28.77;;;3.50;99.90;;;;;;4438805;32;20194;-67
2021/11/11 00:43:53;;;;;;;59.93;29.20;;;3.40;99.90;;;;;;4437744;32;20430;-66
2021/11/11 00:46:20;;;;;;;63.77;30.00;;;3.40;99.90;;;;;;4437896;32;20251;-67
2021/11/11 00:48:47;;;;;;;63.00;30.43;;;3.40;99.90;;;;;;4439265;32;20204;-66
2021/11/11 00:51:14;;;;;;;61.87;28.80;;;3.40;99.90;;;;;;4438483;32;20186;-66
2021/11/11 00:53:41;;;;;;;56.00;28.23;;;3.40;99.90;;;;;;4438303;32;20227;-66
2021/11/11 00:56:07;;;;;;;57.30;29.43;;;3.40;99.90;;;;;;4438089;32;20205;-66
2021/11/11 00:58:34;;;;;;;59.80;28.73;;;3.30;99.90;;;;;;4439887;32;20154;-66
2021/11/11 01:01:01;;;;;;;56.40;28.93;;;3.30;99.90;;;;;;4437025;32;20434;-67
2021/11/11 01:03:40;;;;;;;56.63;28.47;;;3.30;99.90;;;;;;4437671;32;20193;-67
2021/11/11 01:06:11;;;;;;;55.97;27.80;;;3.30;99.90;;;;;;4438492;32;20264;-67
2021/11/11 01:08:38;;;;;;;56.30;27.90;;;3.30;99.90;;;;;;4438280;32;20179;-67
2021/11/11 01:11:05;;;;;;;53.33;27.43;;;3.30;99.90;;;;;;4438494;32;20303;-67
2021/11/11 01:13:33;;;;;;;54.40;27.83;;;3.30;99.90;;;;;;4437563;32;20217;-67
2021/11/11 01:16:02;;;;;;;57.80;27.67;;;3.40;99.90;;;;;;4439087;32;20486;-67
2021/11/11 01:18:29;;;;;;;53.87;27.43;;;3.40;99.90;;;;;;4437576;32;20552;-67
2021/11/11 01:20:57;;;;;;;56.17;28.00;;;3.40;99.90;;;;;;4438007;32;20219;-67
2021/11/11 01:23:24;;;;;;;54.47;27.40;;;3.40;99.90;;;;;;4440266;32;20151;-67
2021/11/11 01:25:51;;;;;;;52.20;26.47;;;3.40;99.90;;;;;;4439073;32;20431;-67
2021/11/11 01:28:18;;;;;;;54.90;27.50;;;3.40;99.90;;;;;;4437637;32;20193;-67
2021/11/11 01:30:45;;;;;;;54.27;27.13;;;3.40;99.90;;;;;;4438867;32;20556;-66
2021/11/11 01:33:14;;;;;;;51.27;26.93;;;3.40;99.90;;;;;;4439571;32;20210;-67
2021/11/11 01:35:41;;;;;;;54.30;27.03;;;3.40;99.90;;;;;;4438948;32;20441;-67
2021/11/11 01:38:08;;;;;;;50.27;26.27;;;3.40;99.90;;;;;;4439023;32;20174;-67
2021/11/11 01:40:36;;;;;;;47.63;26.23;;;3.40;99.90;;;;;;4438602;32;20169;-67
2021/11/11 01:43:06;;;;;;;52.87;26.13;;;3.40;99.90;;;;;;4428347;32;20260;-67
2021/11/11 01:45:37;;;;;;;49.10;25.33;;;3.40;99.90;;;;;;4438962;32;20174;-68
2021/11/11 01:48:06;;;;;;;52.93;26.33;;;3.40;99.90;;;;;;4425135;32;20190;-67
2021/11/11 01:50:34;;;;;;;52.63;25.93;;;3.40;99.90;;;;;;4438802;32;20423;-67
2021/11/11 01:53:01;;;;;;;49.53;25.70;;;3.40;99.90;;;;;;4437087;32;20446;-66
2021/11/11 01:55:29;;;;;;;54.57;25.37;;;3.30;99.90;;;;;;4437540;32;20442;-67
2021/11/11 01:57:57;;;;;;;50.87;25.40;;;3.30;99.90;;;;;;4437798;32;20413;-67
2021/11/11 02:00:29;;;;;;;53.90;25.83;;;3.30;99.90;;;;;;4438876;32;20162;-67
2021/11/11 02:02:59;;;;;;;52.43;24.73;;;3.30;99.90;;;;;;4437164;32;20562;-67
2021/11/11 02:05:27;;;;;;;49.37;24.87;;;3.30;99.90;;;;;;4438511;32;20164;-67
2021/11/11 02:07:54;;;;;;;50.90;25.03;;;3.30;99.90;;;;;;4438820;32;20499;-66
2021/11/11 02:10:23;;;;;;;46.83;23.80;;;3.40;99.90;;;;;;4438824;32;20174;-67
2021/11/11 02:12:51;;;;;;;49.03;25.43;;;3.40;99.90;;;;;;4439702;32;20426;-67
2021/11/11 02:15:19;;;;;;;45.17;23.47;;;3.30;99.90;;;;;;4441862;32;20394;-67
2021/11/11 02:17:47;;;;;;;51.93;25.70;;;3.30;99.90;;;;;;4441757;32;20427;-67
2021/11/11 02:20:36;;;;;;;49.40;24.80;;;3.30;99.90;;;;;;4441078;32;20206;-67
2021/11/11 02:23:07;;;;;;;50.57;24.53;;;3.30;99.90;;;;;;4428434;32;20570;-67
2021/11/11 02:25:34;;;;;;;50.17;25.17;;;3.30;99.90;;;;;;4441517;32;20174;-67
2021/11/11 02:28:04;;;;;;;45.27;23.70;;;3.30;99.90;;;;;;4439796;32;20520;-67
2021/11/11 02:30:34;;;;;;;48.30;23.73;;;3.30;99.90;;;;;;4439777;32;20620;-67
2021/11/11 02:33:07;;;;;;;46.43;24.63;;;3.30;99.90;;;;;;4427605;32;20162;-67
2021/11/11 02:35:33;;;;;;;50.27;24.97;;;3.30;99.90;;;;;;4440162;32;20559;-67
2021/11/11 02:38:01;;;;;;;49.90;23.83;;;3.30;99.90;;;;;;4439721;32;20206;-67
2021/11/11 02:40:28;;;;;;;43.10;23.03;;;3.40;99.90;;;;;;4441138;32;20165;-67
2021/11/11 02:42:55;;;;;;;42.30;22.97;;;3.40;99.90;;;;;;4441361;32;20147;-67
2021/11/11 02:45:29;;;;;;;44.00;22.40;;;3.30;99.90;;;;;;4441241;32;20166;-67
2021/11/11 02:47:57;;;;;;;49.97;23.17;;;3.30;99.90;;;;;;4439909;32;20182;-66
2021/11/11 02:50:24;;;;;;;44.70;23.10;;;3.30;99.90;;;;;;4441131;32;20592;-67
2021/11/11 02:52:52;;;;;;;44.60;23.03;;;3.30;99.90;;;;;;4439561;32;20457;-67
2021/11/11 02:55:19;;;;;;;47.83;23.27;;;3.30;99.90;;;;;;4440769;32;20169;-67
2021/11/11 02:57:50;;;;;;;44.23;21.80;;;3.30;99.90;;;;;;4439813;32;20430;-67
2021/11/11 03:00:23;;;;;;;49.27;23.30;;;3.40;99.90;;;;;;4440422;32;20179;-67
2021/11/11 03:02:51;;;;;;;47.07;22.77;;;3.40;99.90;;;;;;4439509;32;20434;-67
2021/11/11 03:05:25;;;;;;;44.80;22.87;;;3.40;99.90;;;;;;4439788;32;20193;-67
2021/11/11 03:07:52;;;;;;;46.80;22.63;;;3.40;99.90;;;;;;4439448;32;20179;-67
2021/11/11 03:10:22;;;;;;;42.47;22.60;;;3.40;99.90;;;;;;4441100;32;20189;-67
2021/11/11 03:12:51;;;;;;;42.10;22.50;;;3.40;99.90;;;;;;4440728;32;20223;-67
2021/11/11 03:15:20;;;;;;;42.57;22.53;;;3.40;99.90;;;;;;4440636;32;20361;-68
2021/11/11 03:17:48;;;;;;;48.97;22.93;;;3.40;99.90;;;;;;4441540;32;20177;-67
2021/11/11 03:20:16;;;;;;;46.37;23.47;;;3.40;99.90;;;;;;4439981;32;20191;-67
2021/11/11 03:22:43;;;;;;;48.73;23.40;;;3.50;99.90;;;;;;4426247;32;20183;-67
2021/11/11 03:25:13;;;;;;;41.80;22.20;;;3.50;99.90;;;;;;4428000;32;20210;-67
2021/11/11 03:27:40;;;;;;;44.10;22.63;;;3.50;99.90;;;;;;4440361;32;20263;-67
2021/11/11 03:30:12;;;;;;;43.03;21.53;;;3.50;99.90;;;;;;4440425;32;20190;-67
2021/11/11 03:32:40;;;;;;;47.13;22.90;;;3.50;99.90;;;;;;4440742;32;20174;-67
2021/11/11 03:35:08;;;;;;;42.37;21.73;;;3.50;99.90;;;;;;4440546;32;20178;-67
2021/11/11 03:37:36;;;;;;;41.83;22.17;;;3.50;99.90;;;;;;4441832;32;20201;-68
2021/11/11 03:40:09;;;;;;;42.27;21.50;;;3.50;99.90;;;;;;4439202;32;20233;-67
2021/11/11 03:42:36;;;;;;;43.33;21.60;;;3.50;99.90;;;;;;4440164;32;20182;-67
2021/11/11 03:45:06;;;;;;;43.57;21.87;;;3.50;99.90;;;;;;4438642;32;20468;-67
2021/11/11 03:47:33;;;;;;;41.77;21.63;;;3.60;99.90;;;;;;4426370;32;20215;-67
2021/11/11 03:50:00;;;;;;;42.37;21.67;;;3.50;99.90;;;;;;4440204;32;20287;-67
2021/11/11 03:52:27;;;;;;;41.97;21.87;;;3.50;99.90;;;;;;4441304;32;20211;-67
2021/11/11 03:54:54;;;;;;;43.23;22.40;;;3.50;99.90;;;;;;4440489;32;20181;-67
2021/11/11 03:57:21;;;;;;;44.30;21.93;;;3.50;99.90;;;;;;4438080;32;20236;-67
2021/11/11 03:59:48;;;;;;;42.57;21.80;;;3.40;99.90;;;;;;4438479;32;20247;-67
2021/11/11 04:02:15;;;;;;;42.30;21.30;;;3.40;99.90;;;;;;4438608;32;20205;-67
2021/11/11 04:04:42;;;;;;;44.03;22.67;;;3.40;99.90;;;;;;4439781;32;20178;-67
2021/11/11 04:07:09;;;;;;;41.17;22.20;;;3.50;99.90;;;;;;4439871;32;20234;-67
2021/11/11 04:09:36;;;;;;;42.87;22.10;;;3.40;99.90;;;;;;4439954;32;20468;-67
2021/11/11 04:12:04;;;;;;;41.87;20.77;;;3.40;99.90;;;;;;4439156;32;20234;-67
2021/11/11 04:14:32;;;;;;;44.87;21.63;;;3.40;99.90;;;;;;4440266;32;20260;-67
2021/11/11 04:16:59;;;;;;;46.37;22.87;;;3.40;99.90;;;;;;4425480;32;20607;-67
2021/11/11 04:19:26;;;;;;;46.80;21.83;;;3.40;99.90;;;;;;4441384;32;20191;-67
2021/11/11 04:21:53;;;;;;;42.57;21.60;;;3.30;99.90;;;;;;4440037;32;20155;-67
2021/11/11 04:24:21;;;;;;;41.73;21.90;;;3.30;99.90;;;;;;4439997;32;20461;-67
2021/11/11 04:26:55;;;;;;;45.47;22.43;;;3.30;99.90;;;;;;4438673;32;20182;-67
2021/11/11 04:29:26;;;;;;;42.43;21.50;;;3.30;99.90;;;;;;4446294;32;20179;-67
2021/11/11 04:32:14;;;;;;;41.77;22.20;;;3.20;99.90;;;;;;4438132;32;20190;-67
2021/11/11 04:34:43;;;;;;;42.23;21.87;;;3.20;99.90;;;;;;4437700;32;20218;-67
2021/11/11 04:37:28;;;;;;;43.17;22.53;;;3.20;99.90;;;;;;4427743;32;20194;-67
2021/11/11 05:04:29;;;;;;;44.97;23.13;;;3.10;99.90;;;;;;4393278;32;20210;-67
2021/11/11 05:07:01;;;;;;;45.43;23.47;;;3.10;99.90;;;;;;4395118;32;20206;-67
2021/11/11 05:09:28;;;;;;;42.40;22.23;;;3.10;99.90;;;;;;4393423;32;20188;-68
2021/11/11 05:11:55;;;;;;;43.90;22.37;;;3.00;99.90;;;;;;4393901;32;20236;-67
2021/11/11 05:14:22;;;;;;;45.63;23.00;;;3.00;99.90;;;;;;4394097;32;20187;-67
2021/11/11 05:16:49;;;;;;;47.37;22.90;;;3.00;99.90;;;;;;4408011;32;20454;-67
2021/11/11 05:19:16;;;;;;;47.00;23.87;;;3.00;99.90;;;;;;4394650;32;20559;-67
2021/11/11 05:21:43;;;;;;;44.57;21.90;;;3.00;99.90;;;;;;4397754;32;20244;-67
2021/11/11 05:24:11;;;;;;;44.80;23.70;;;3.00;99.90;;;;;;4439636;32;20445;-67
2021/11/11 05:26:40;;;;;;;44.73;22.47;;;3.00;99.90;;;;;;4438118;32;20170;-67
2021/11/11 05:29:08;;;;;;;44.37;23.40;;;3.00;99.90;;;;;;4438710;32;20190;-67
2021/11/11 05:31:35;;;;;;;42.90;22.43;;;3.00;99.90;;;;;;4431954;32;20221;-67
2021/11/11 05:34:03;;;;;;;45.60;23.23;;;3.00;99.90;;;;;;4438828;32;20186;-67
2021/11/11 05:36:30;;;;;;;45.83;22.73;;;3.00;99.90;;;;;;4438422;32;20232;-67
2021/11/11 05:38:57;;;;;;;46.53;22.83;;;3.00;99.90;;;;;;4437321;32;20171;-67
2021/11/11 05:41:24;;;;;;;45.80;22.90;;;2.90;99.90;;;;;;4437785;32;20174;-67
2021/11/11 05:43:51;;;;;;;46.97;21.97;;;2.90;99.90;;;;;;4437875;32;20263;-67
2021/11/11 05:46:18;;;;;;;43.20;22.33;;;2.90;99.90;;;;;;4438820;32;20201;-67
2021/11/11 05:48:46;;;;;;;43.93;22.80;;;3.00;99.90;;;;;;4443231;32;20169;-67
2021/11/11 05:51:13;;;;;;;45.53;22.17;;;3.00;99.90;;;;;;4440406;32;20508;-67
2021/11/11 05:53:40;;;;;;;45.40;23.73;;;3.00;99.90;;;;;;4442384;32;20146;-67
2021/11/11 05:56:06;;;;;;;44.27;22.40;;;3.00;99.90;;;;;;4440855;32;20178;-67
2021/11/11 05:58:33;;;;;;;44.47;21.70;;;3.10;99.90;;;;;;4440784;32;20209;-67
2021/11/11 06:01:00;;;;;;;44.87;22.53;;;3.00;99.90;;;;;;4441107;32;20619;-67
2021/11/11 06:03:28;;;;;;;45.77;22.13;;;3.00;99.90;;;;;;4440365;32;20208;-67
2021/11/11 06:05:55;;;;;;;43.10;21.83;;;3.00;99.90;;;;;;4440779;32;20208;-67
2021/11/11 06:08:22;;;;;;;43.33;22.10;;;3.00;99.90;;;;;;4442164;32;20162;-67
2021/11/11 06:10:49;;;;;;;45.70;22.67;;;3.00;99.90;;;;;;4441031;32;20171;-67
2021/11/11 06:13:16;;;;;;;47.77;22.80;;;3.00;99.90;;;;;;4440798;32;20222;-67
2021/11/11 06:15:43;;;;;;;44.70;21.40;;;3.00;99.90;;;;;;4440198;32;20170;-67
2021/11/11 06:18:12;;;;;;;40.90;22.60;;;2.90;99.90;;;;;;4428878;32;20594;-67
2021/11/11 06:20:44;;;;;;;42.73;21.77;;;2.90;99.90;;;;;;4441608;32;20151;-67
2021/11/11 06:23:12;;;;;;;40.30;21.53;;;3.00;99.90;;;;;;4442116;32;20215;-67
2021/11/11 06:25:40;;;;;;;43.33;21.47;;;3.00;99.90;;;;;;4441696;32;20184;-67
2021/11/11 06:28:08;;;;;;;38.60;21.67;;;3.00;99.90;;;;;;4440694;32;20308;-67
2021/11/11 06:30:36;;;;;;;42.17;22.73;;;3.00;99.90;;;;;;4439608;32;20209;-67
2021/11/11 06:33:03;;;;;;;44.47;22.20;;;3.00;99.90;;;;;;4440064;32;20454;-67
2021/11/11 06:35:32;;;;;;;44.40;21.87;;;3.00;99.90;;;;;;4443432;32;20192;-67
2021/11/11 06:38:00;;;;;;;43.67;22.00;;;3.00;99.90;;;;;;4445734;32;20197;-67
2021/11/11 06:40:29;;;;;;;45.03;22.07;;;3.10;99.90;;;;;;4427456;32;20204;-67
2021/11/11 06:42:56;;;;;;;43.63;21.73;;;3.00;99.90;;;;;;4441129;32;20170;-67
2021/11/11 06:45:25;;;;;;;44.13;22.37;;;3.00;99.90;;;;;;4441033;32;20197;-67
2021/11/11 06:47:54;;;;;;;40.93;21.53;;;3.10;99.90;;;;;;4440169;32;20791;-67
2021/11/11 06:50:21;;;;;;;45.43;21.77;;;3.20;99.90;;;;;;4440137;32;20201;-67
2021/11/11 06:52:48;;;;;;;41.27;21.10;;;3.20;99.90;;;;;;4441213;32;20170;-67
2021/11/11 06:55:16;;;;;;;39.93;21.00;;;3.20;99.90;;;;;;4441538;32;20147;-67
2021/11/11 06:57:43;;;;;;;42.07;21.43;;;3.30;99.90;;;;;;4439169;32;20550;-66
2021/11/11 07:00:11;;;;;;;42.33;21.30;;;3.30;99.90;;;;;;4440019;32;20234;-68
2021/11/11 07:02:38;;;;;;;43.47;21.57;;;3.30;99.90;;;;;;4439354;32;20182;-67
2021/11/11 07:05:06;;;;;;;41.93;21.87;;;3.30;99.90;;;;;;4440983;32;20178;-67
2021/11/11 07:07:33;;;;;;;43.40;21.87;;;3.40;99.90;;;;;;4441495;32;20193;-67
2021/11/11 07:10:00;;;;;;;43.67;21.97;;;3.40;99.90;;;;;;4439343;32;20442;-67
2021/11/11 07:12:27;;;;;;;40.33;20.87;;;3.50;99.90;;;;;;4439599;32;20171;-67
2021/11/11 07:14:56;;;;;;;41.90;21.40;;;3.60;99.90;;;;;;4439990;32;20206;-67
2021/11/11 07:17:24;;;;;;;40.70;21.03;;;3.70;99.90;;;;;;4438807;32;20214;-67
2021/11/11 07:19:50;;;;;;;39.43;20.10;;;3.80;99.90;;;;;;4439148;32;20171;-67
2021/11/11 07:22:19;;;;;;;41.77;20.73;;;3.90;99.90;;;;;;4439440;32;20197;-67
2021/11/11 07:24:46;;;;;;;43.07;21.23;;;3.90;99.90;;;;;;4441289;32;20198;-67
2021/11/11 07:27:13;;;;;;;38.67;19.67;;;4.10;99.90;;;;;;4439142;32;20480;-67
2021/11/11 07:29:40;;;;;;;38.97;21.17;;;4.50;99.90;;;;;;4439950;32;20172;-67
2021/11/11 07:32:07;;;;;;;36.43;19.10;;;4.90;99.90;;;;;;4439458;32;20232;-67
2021/11/11 07:34:36;;;;;;;39.60;19.40;;;5.10;99.90;;;;;;4439525;32;20194;-67
2021/11/11 07:37:05;;;;;;;37.50;19.40;;;5.30;99.90;;;;;;4440077;32;20164;-67
2021/11/11 07:39:33;;;;;;;33.57;18.17;;;5.60;99.90;;;;;;4439531;32;20241;-67
2021/11/11 07:42:01;;;;;;;36.03;18.53;;;5.80;99.90;;;;;;4439938;32;20198;-67
2021/11/11 07:44:28;;;;;;;34.73;18.80;;;5.80;99.90;;;;;;4439281;32;20174;-67
2021/11/11 07:46:55;;;;;;;34.07;18.27;;;6.00;99.90;;;;;;4452048;32;20167;-67
2021/11/11 07:49:22;;;;;;;36.43;18.60;;;6.10;99.90;;;;;;4443191;32;20292;-67
2021/11/11 07:51:49;;;;;;;35.70;18.40;;;6.20;99.90;;;;;;4426785;32;20178;-67
2021/11/11 07:54:16;;;;;;;33.70;17.73;;;6.40;99.90;;;;;;4438442;32;20177;-67
2021/11/11 07:56:43;;;;;;;34.70;18.97;;;6.50;99.90;;;;;;4438031;32;20207;-67
2021/11/11 07:59:12;;;;;;;34.53;18.23;;;6.70;99.90;;;;;;4438397;32;20212;-67
2021/11/11 08:01:40;;;;;;;34.33;17.97;;;6.60;99.90;;;;;;4441532;32;20144;-67
2021/11/11 08:04:11;;;;;;;33.50;17.57;;;6.70;99.90;;;;;;4439883;32;20390;-66
2021/11/11 08:06:38;;;;;;;36.50;18.77;;;6.80;99.90;;;;;;4438315;32;20255;-67
2021/11/11 08:09:05;;;;;;;31.43;17.97;;;6.80;99.90;;;;;;4439866;32;20165;-66
2021/11/11 08:11:36;;;;;;;35.40;18.30;;;6.90;99.90;;;;;;4439567;32;20208;-67
2021/11/11 08:14:05;;;;;;;35.80;18.83;;;7.00;99.90;;;;;;4441546;32;20200;-67
2021/11/11 08:16:32;;;;;;;35.40;18.70;;;7.10;99.90;;;;;;4439014;32;20241;-67
2021/11/11 08:19:00;;;;;;;33.27;19.17;;;7.20;99.90;;;;;;4439509;32;20221;-67
2021/11/11 08:21:27;;;;;;;33.60;18.77;;;7.40;99.90;;;;;;4440580;32;20201;-66
2021/11/11 08:23:54;;;;;;;34.03;18.20;;;7.50;99.90;;;;;;4438409;32;20243;-67
2021/11/11 08:26:21;;;;;;;34.37;18.37;;;7.70;99.90;;;;;;4439468;32;20165;-67
2021/11/11 08:28:47;;;;;;;30.90;18.13;;;7.80;99.90;;;;;;4425247;32;20176;-67
2021/11/11 08:31:16;;;;;;;33.90;19.27;;;7.70;99.90;;;;;;4438514;32;20178;-67
2021/11/11 08:33:44;;;;;;;38.67;19.87;;;7.60;99.90;;;;;;4439057;32;20221;-67
2021/11/11 08:36:11;;;;;;;35.57;19.40;;;7.30;99.90;;;;;;4439913;32;20430;-67
2021/11/11 08:38:43;;;;;;;36.17;19.10;;;7.20;99.90;;;;;;4439532;32;20171;-67
2021/11/11 08:41:10;;;;;;;36.97;20.00;;;7.10;99.90;;;;;;4439707;32;20168;-68
2021/11/11 08:43:38;;;;;;;36.73;19.03;;;7.00;99.90;;;;;;4438949;32;20181;-67
2021/11/11 08:46:05;;;;;;;34.67;19.70;;;7.00;99.90;;;;;;4438568;32;20188;-67
2021/11/11 08:48:32;;;;;;;40.20;20.40;;;7.00;99.90;;;;;;4437572;32;20180;-67
2021/11/11 08:51:01;;;;;;;38.17;19.83;;;7.00;99.90;;;;;;4437564;32;20197;-67
2021/11/11 08:53:30;;;;;;;36.87;19.80;;;6.90;99.90;;;;;;4438753;32;20225;-67
2021/11/11 08:55:57;;;;;;;34.30;19.37;;;6.80;99.90;;;;;;4438898;32;20189;-66
2021/11/11 08:58:29;;;;;;;37.40;19.23;;;6.80;99.90;;;;;;4437302;32;20175;-65
2021/11/11 09:01:00;;;;;;;40.53;19.27;;;6.80;99.90;;;;;;4437454;32;20239;-66
2021/11/11 09:03:28;;;;;;;37.43;19.33;;;6.80;99.90;;;;;;4437971;32;20200;-66
2021/11/11 09:05:55;;;;;;;35.13;19.73;;;6.80;99.90;;;;;;4440845;32;20146;-66
2021/11/11 09:08:22;;;;;;;35.43;19.40;;;6.90;99.90;;;;;;4439053;32;20170;-66
2021/11/11 09:10:51;;;;;;;36.90;19.57;;;7.00;99.90;;;;;;4437242;32;20178;-66
2021/11/11 09:13:29;;;;;;;35.87;19.50;;;6.80;99.90;;;;;;4438987;32;20169;-67
2021/11/11 09:15:57;;;;;;;37.73;20.10;;;6.80;99.90;;;;;;4438954;32;20231;-67
2021/11/11 09:18:24;;;;;;;39.40;20.10;;;6.70;99.90;;;;;;4438946;32;20202;-67
2021/11/11 09:21:00;;;;;;;36.80;19.93;;;6.80;99.90;;;;;;4439001;32;20199;-68
2021/11/11 09:23:28;;;;;;;35.83;19.27;;;6.70;99.90;;;;;;4437938;32;20203;-67
2021/11/11 09:25:54;;;;;;;37.77;20.13;;;6.80;99.90;;;;;;4439104;32;20181;-67
2021/11/11 09:28:21;;;;;;;35.50;19.13;;;7.00;99.90;;;;;;4438726;32;20159;-67
2021/11/11 09:30:49;;;;;;;36.43;19.23;;;6.90;99.90;;;;;;4437218;32;20175;-67
2021/11/11 09:33:16;;;;;;;38.07;19.90;;;6.90;99.90;;;;;;4439001;32;20515;-66
2021/11/11 09:35:43;;;;;;;35.03;19.43;;;7.00;99.90;;;;;;4439995;32;20162;-66
2021/11/11 09:38:10;;;;;;;36.57;19.53;;;7.00;99.90;;;;;;4424712;32;20604;-66
2021/11/11 09:40:37;;;;;;;35.03;19.10;;;7.00;99.90;;;;;;4437468;32;20220;-66
2021/11/11 09:43:04;;;;;;;34.20;18.87;;;7.10;99.90;;;;;;4438506;32;20211;-66
2021/11/11 09:45:33;;;;;;;35.63;19.43;;;7.20;99.90;;;;;;4439191;32;20174;-67
2021/11/11 09:48:01;;;;;;;36.93;19.40;;;7.30;99.90;;;;;;4437581;32;20263;-67
2021/11/11 09:50:29;;;;;;;36.27;19.90;;;7.40;99.90;;;;;;4438426;32;20466;-66
2021/11/11 09:53:03;;;;;;;32.47;18.93;;;7.60;99.90;;;;;;4437984;32;20237;-67
2021/11/11 09:58:34;;;;;;;33.10;18.57;;;7.70;99.90;;;;;;4450028;32;20162;-67
2021/11/11 10:01:05;;;;;;;33.87;18.63;;;7.80;99.90;;;;;;4453830;32;20245;-67
2021/11/11 10:03:33;;;;;;;33.47;18.83;;;7.90;99.90;;;;;;4453472;32;20178;-67
2021/11/11 10:06:00;;;;;;;34.40;19.30;;;8.00;99.90;;;;;;4452414;32;20178;-67
2021/11/11 10:08:42;;;;;;;33.00;18.93;;;8.10;99.90;;;;;;4452904;32;20182;-67
2021/11/11 10:11:31;;;;;;;31.73;18.83;;;8.20;99.90;;;;;;4453018;32;20169;-67
2021/11/11 10:14:10;;;;;;;36.30;19.43;;;8.40;99.90;;;;;;4454035;32;20176;-66
2021/11/11 10:16:42;;;;;;;33.90;18.70;;;8.40;99.90;;;;;;4454222;32;20177;-66
2021/11/11 10:19:09;;;;;;;34.57;18.40;;;8.50;99.90;;;;;;4453494;32;20182;-67
2021/11/11 10:21:46;;;;;;;35.87;19.17;;;8.60;99.90;;;;;;4455046;32;20195;-66
2021/11/11 10:24:19;;;;;;;33.47;18.27;;;8.60;99.90;;;;;;4454933;32;20194;-66
2021/11/11 10:27:00;;;;;;;34.03;19.97;;;8.80;99.90;;;;;;4452439;32;20227;-66
2021/11/11 10:30:02;;;;;;;36.00;19.43;;;8.80;99.90;;;;;;4452753;32;20197;-67
2021/11/11 10:32:38;;;;;;;35.57;19.07;;;8.90;99.90;;;;;;4449248;32;20181;-67
2021/11/11 10:35:15;;;;;;;31.57;17.77;;;9.00;99.90;;;;;;4457094;32;20223;-67
2021/11/11 10:37:53;;;;;;;32.23;18.03;;;9.20;99.90;;;;;;4456505;32;20237;-67
2021/11/11 10:40:29;;;;;;;35.10;18.90;;;9.30;99.90;;;;;;4454998;32;20413;-67
2021/11/11 10:42:58;;;;;;;34.63;19.10;;;9.50;99.90;;;;;;4446109;32;20269;-67
2021/11/11 10:45:28;;;;;;;31.53;17.90;;;9.60;99.90;;;;;;4439518;32;20182;-67
2021/11/11 10:48:00;;;;;;;35.80;18.77;;;9.60;99.90;;;;;;4441519;32;20166;-66
2021/11/11 10:50:29;;;;;;;35.33;19.40;;;9.60;99.90;;;;;;4440878;32;20484;-66
2021/11/11 10:52:59;;;;;;;35.10;20.30;;;9.50;99.90;;;;;;4440505;32;20258;-66
2021/11/11 10:55:25;;;;;;;34.00;19.03;;;9.40;99.90;;;;;;4439824;32;20212;-66
2021/11/11 10:57:58;;;;;;;36.13;19.97;;;9.60;99.90;;;;;;4441771;32;20178;-66
2021/11/11 11:00:28;;;;;;;34.03;20.00;;;9.60;99.90;;;;;;4426910;32;20182;-66
2021/11/11 11:03:18;;;;;;;34.67;19.70;;;9.70;99.90;;;;;;4440677;32;20178;-66
2021/11/11 11:05:52;;;;;;;32.57;19.67;;;9.80;99.90;;;;;;4441562;32;20209;-66
2021/11/11 11:08:41;;;;;;;36.67;19.83;;;9.70;99.90;;;;;;4441514;32;20246;-66
2021/11/11 11:11:12;;;;;;;34.43;19.70;;;9.60;99.90;;;;;;4439962;32;20197;-66
2021/11/11 11:13:48;;;;;;;35.00;20.13;;;9.40;99.90;;;;;;4439482;32;20197;-66
2021/11/11 11:16:31;;;;;;;35.43;20.30;;;9.50;99.90;;;;;;4439608;32;20194;-66
2021/11/11 11:19:08;;;;;;;36.70;20.17;;;9.60;99.90;;;;;;4426393;32;20240;-65
2021/11/11 11:21:40;;;;;;;32.60;18.43;;;9.80;99.90;;;;;;4440692;32;20178;-66
2021/11/11 11:24:11;;;;;;;35.63;19.60;;;10.10;99.90;;;;;;4440167;32;20171;-66
2021/11/11 11:26:43;;;;;;;30.70;19.00;;;10.70;99.90;;;;;;4440656;32;20185;-65
2021/11/11 11:29:19;;;;;;;33.10;19.30;;;11.20;99.90;;;;;;4438660;32;20254;-66
2021/11/11 11:32:05;;;;;;;31.00;18.20;;;11.80;99.90;;;;;;4440972;32;20192;-66
2021/11/11 11:34:37;;;;;;;31.23;18.13;;;12.60;99.90;;;;;;4439948;32;20178;-66
2021/11/11 11:37:11;;;;;;;29.40;18.43;;;13.20;99.90;;;;;;4439220;32;20178;-66
2021/11/11 11:39:45;;;;;;;29.87;17.77;;;13.90;99.90;;;;;;4438555;32;20201;-66
2021/11/11 11:42:20;;;;;;;30.20;18.87;;;14.60;99.90;;;;;;4439263;32;20173;-66
2021/11/11 11:44:49;;;;;;;31.30;18.90;;;14.90;99.90;;;;;;4440657;32;20158;-66
2021/11/11 11:47:33;;;;;;;29.63;18.53;;;15.20;99.90;;;;;;4439470;32;20185;-66
2021/11/11 11:50:12;;;;;;;29.83;18.00;;;15.20;99.90;;;;;;4440146;32;20215;-66
2021/11/11 11:52:45;;;;;;;30.73;18.47;;;16.00;99.90;;;;;;4439735;32;20197;-66
2021/11/11 11:55:23;;;;;;;30.63;18.13;;;16.80;99.90;;;;;;4439174;32;20243;-66
2021/11/11 12:28:35;;;;;;;29.70;18.80;;;11.50;99.90;;;;;;4438756;32;20240;-67
2021/11/11 12:39:54;;;;;;;34.43;19.60;;;11.70;99.90;;;;;;4439250;32;20183;-67
2021/11/11 12:42:52;;;;;;;35.13;19.27;;;12.40;99.90;;;;;;4438274;32;20186;-68
2021/11/11 12:45:31;;;;;;;32.97;19.37;;;12.80;99.90;;;;;;4438319;32;20159;-67
2021/11/11 12:48:10;;;;;;;31.90;19.07;;;12.80;99.90;;;;;;4439618;32;20196;-67
2021/11/11 12:50:45;;;;;;;31.67;18.87;;;13.40;99.90;;;;;;4437867;32;20242;-67
2021/11/11 12:53:12;;;;;;;33.93;19.67;;;13.80;99.90;;;;;;4439293;32;20177;-68
2021/11/11 12:55:57;;;;;;;32.33;19.00;;;14.10;99.90;;;;;;4438177;32;20189;-67
2021/11/11 12:58:48;;;;;;;36.20;19.23;;;14.30;99.90;;;;;;4438015;32;20265;-67
2021/11/11 13:01:17;;;;;;;30.43;18.63;;;14.40;99.90;;;;;;4437848;32;20207;-67
2021/11/11 13:04:00;;;;;;;34.30;19.80;;;14.50;99.90;;;;;;4437559;32;20242;-67
2021/11/11 13:06:41;;;;;;;33.80;20.07;;;14.40;99.90;;;;;;4437854;32;20207;-67
2021/11/11 13:09:27;;;;;;;32.30;18.77;;;14.10;99.90;;;;;;4439505;32;20242;-67
2021/11/11 13:12:06;;;;;;;32.67;19.80;;;13.90;99.90;;;;;;4437641;32;20201;-67
2021/11/11 13:14:36;;;;;;;32.50;18.80;;;13.90;99.90;;;;;;4438830;32;20181;-67
2021/11/11 13:17:02;;;;;;;34.10;19.97;;;14.00;99.90;;;;;;4439089;32;20178;-67
2021/11/11 13:19:53;;;;;;;32.67;19.87;;;13.70;99.90;;;;;;4437236;32;20182;-67
2021/11/11 13:22:47;;;;;;;36.50;19.93;;;13.60;99.90;;;;;;4440946;32;20154;-67
2021/11/11 13:25:46;;;;;;;34.73;19.47;;;13.40;99.90;;;;;;4437222;32;20224;-67
2021/11/11 15:59:44;;;;;;;50.93;27.10;;;7.40;99.90;;;;;;4440626;32;20169;-66
2021/11/11 16:27:29;;;;;;;53.13;27.77;;;7.10;99.90;;;;;;4438744;32;20177;-67
2021/11/11 16:30:07;;;;;;;51.43;27.70;;;7.10;99.90;;;;;;4438661;32;20225;-67
2021/11/11 16:32:34;;;;;;;55.20;27.87;;;7.10;99.90;;;;;;4440188;32;20190;-67
2021/11/11 16:35:03;;;;;;;50.93;28.33;;;7.10;99.90;;;;;;4439259;32;20194;-67
2021/11/11 16:37:34;;;;;;;55.77;29.03;;;7.10;99.90;;;;;;4438025;32;20389;-67
2021/11/11 16:40:03;;;;;;;56.47;28.57;;;7.00;99.90;;;;;;4438044;32;20176;-68
2021/11/11 16:42:30;;;;;;;56.87;29.23;;;7.00;99.90;;;;;;4437596;32;20204;-67
2021/11/11 16:45:10;;;;;;;55.27;28.13;;;7.00;99.90;;;;;;4438106;32;20232;-67
2021/11/11 16:47:37;;;;;;;55.87;29.37;;;6.90;99.90;;;;;;4438045;32;20174;-67
2021/11/11 16:50:05;;;;;;;58.80;29.90;;;6.90;99.90;;;;;;4438810;32;20145;-67
2021/11/11 16:52:32;;;;;;;58.00;29.33;;;6.90;99.90;;;;;;4437673;32;20236;-66
2021/11/11 16:54:59;;;;;;;60.53;30.50;;;6.80;99.90;;;;;;4437782;32;20460;-67